sensor_id;sensor_type;location;lat;lon;timestamp;pressure;altitude;pressure_sealevel;temperature;humidity
48624;BME280;75490;45.802;16.114;2024-01-27T00:02:05;64168.13;;;3.55;100.00
48624;BME280;75490;45.802;16.114;2024-01-27T00:04:31;64176.66;;;3.61;100.00
48624;BME280;75490;45.802;16.114;2024-01-27T00:07:02;64186.78;;;3.65;100.00
48624;BME280;75490;45.802;16.114;2024-01-27T00:09:29;64189.47;;;3.70;100.00
48624;BME280;75490;45.802;16.114;2024-01-27T00:11:55;64184.69;;;3.68;100.00
48624;BME280;75490;45.802;16.114;2024-01-27T00:14:22;64198.56;;;3.79;100.00
48624;BME280;75490;45.802;16.114;2024-01-27T00:16:49;64188.97;;;3.72;100.00
48624;BME280;75490;45.802;16.114;2024-01-27T00:19:15;64181.47;;;3.65;100.00
48624;BME280;75490;45.802;16.114;2024-01-27T00:21:42;64177.19;;;3.61;100.00
48624;BME280;75490;45.802;16.114;2024-01-27T00:24:09;64172.38;;;3.54;100.00
48624;BME280;75490;45.802;16.114;2024-01-27T00:26:36;64156.88;;;3.42;100.00
48624;BME280;75490;45.802;16.114;2024-01-27T00:29:03;64153.06;;;3.33;100.00
48624;BME280;75490;45.802;16.114;2024-01-27T00:31:30;64153.63;;;3.34;100.00
48624;BME280;75490;45.802;16.114;2024-01-27T00:33:57;64147.25;;;3.33;100.00
48624;BME280;75490;45.802;16.114;2024-01-27T00:36:23;64139.25;;;3.28;100.00
48624;BME280;75490;45.802;16.114;2024-01-27T00:38:50;64138.13;;;3.21;100.00
48624;BME280;75490;45.802;16.114;2024-01-27T00:41:18;64131.72;;;3.18;100.00
48624;BME280;75490;45.802;16.114;2024-01-27T00:43:45;64131.19;;;3.17;100.00
48624;BME280;75490;45.802;16.114;2024-01-27T00:46:12;64132.78;;;3.16;100.00
48624;BME280;75490;45.802;16.114;2024-01-27T00:48:39;64145.09;;;3.31;100.00
48624;BME280;75490;45.802;16.114;2024-01-27T00:51:05;64156.81;;;3.37;100.00
48624;BME280;75490;45.802;16.114;2024-01-27T00:53:32;64156.81;;;3.37;100.00
48624;BME280;75490;45.802;16.114;2024-01-27T00:55:59;64148.28;;;3.31;100.00
48624;BME280;75490;45.802;16.114;2024-01-27T00:58:26;64145.09;;;3.31;100.00
48624;BME280;75490;45.802;16.114;2024-01-27T01:00:53;64145.59;;;3.29;100.00
48624;BME280;75490;45.802;16.114;2024-01-27T01:03:20;64151.00;;;3.36;100.00
48624;BME280;75490;45.802;16.114;2024-01-27T01:05:46;64164.91;;;3.49;100.00
48624;BME280;75490;45.802;16.114;2024-01-27T01:08:13;64233.34;;;4.12;100.00
48624;BME280;75490;45.802;16.114;2024-01-27T01:10:40;64320.66;;;4.97;100.00
48624;BME280;75490;45.802;16.114;2024-01-27T01:13:07;64375.28;;;5.49;100.00
48624;BME280;75490;45.802;16.114;2024-01-27T01:15:33;64386.59;;;5.64;100.00
48624;BME280;75490;45.802;16.114;2024-01-27T01:18:00;64434.28;;;6.04;100.00
48624;BME280;75490;45.802;16.114;2024-01-27T01:20:27;64493.25;;;6.60;100.00
48624;BME280;75490;45.802;16.114;2024-01-27T01:22:54;64514.22;;;6.83;100.00
48624;BME280;75490;45.802;16.114;2024-01-27T01:25:21;64512.59;;;6.78;100.00
48624;BME280;75490;45.802;16.114;2024-01-27T01:27:47;64508.81;;;6.72;100.00
48624;BME280;75490;45.802;16.114;2024-01-27T01:30:16;64497.59;;;6.69;100.00
48624;BME280;75490;45.802;16.114;2024-01-27T01:32:46;64499.72;;;6.66;100.00
48624;BME280;75490;45.802;16.114;2024-01-27T01:35:13;64485.78;;;6.58;100.00
48624;BME280;75490;45.802;16.114;2024-01-27T01:37:39;64486.84;;;6.59;100.00
48624;BME280;75490;45.802;16.114;2024-01-27T01:40:07;64493.25;;;6.60;100.00
48624;BME280;75490;45.802;16.114;2024-01-27T01:42:34;64479.88;;;6.50;100.00
48624;BME280;75490;45.802;16.114;2024-01-27T01:45:01;64485.78;;;6.58;100.00
48624;BME280;75490;45.802;16.114;2024-01-27T01:47:28;64510.97;;;6.77;100.00
48624;BME280;75490;45.802;16.114;2024-01-27T01:49:56;64517.41;;;6.83;100.00
48624;BME280;75490;45.802;16.114;2024-01-27T01:52:23;64510.97;;;6.77;100.00
48624;BME280;75490;45.802;16.114;2024-01-27T01:54:50;64527.59;;;6.93;100.00
48624;BME280;75490;45.802;16.114;2024-01-27T01:57:17;64536.19;;;7.01;100.00
48624;BME280;75490;45.802;16.114;2024-01-27T01:59:45;64552.81;;;7.14;100.00
48624;BME280;75490;45.802;16.114;2024-01-27T02:02:13;64549.09;;;7.18;100.00
48624;BME280;75490;45.802;16.114;2024-01-27T02:04:43;64553.34;;;7.17;100.00
48624;BME280;75490;45.802;16.114;2024-01-27T02:07:10;64547.97;;;7.12;100.00
48624;BME280;75490;45.802;16.114;2024-01-27T02:09:37;64538.38;;;7.08;100.00
48624;BME280;75490;45.802;16.114;2024-01-27T02:12:05;64526.53;;;6.92;100.00
48624;BME280;75490;45.802;16.114;2024-01-27T02:14:32;64517.44;;;6.88;100.00
48624;BME280;75490;45.802;16.114;2024-01-27T02:16:59;64510.38;;;6.71;100.00
48624;BME280;75490;45.802;16.114;2024-01-27T02:19:26;64492.78;;;6.65;100.00
48624;BME280;75490;45.802;16.114;2024-01-27T02:21:53;64480.94;;;6.51;100.00
48624;BME280;75490;45.802;16.114;2024-01-27T02:24:19;64479.84;;;6.48;100.00
48624;BME280;75490;45.802;16.114;2024-01-27T02:26:46;64476.63;;;6.42;100.00
48624;BME280;75490;45.802;16.114;2024-01-27T02:29:13;64466.44;;;6.35;100.00
48624;BME280;75490;45.802;16.114;2024-01-27T02:31:40;64461.09;;;6.32;100.00
48624;BME280;75490;45.802;16.114;2024-01-27T02:34:06;64448.75;;;6.18;100.00
48624;BME280;75490;45.802;16.114;2024-01-27T02:36:33;64443.38;;;6.11;100.00
48624;BME280;75490;45.802;16.114;2024-01-27T02:39:00;64432.69;;;6.05;100.00
48624;BME280;75490;45.802;16.114;2024-01-27T02:41:27;64420.38;;;5.96;100.00
48624;BME280;75490;45.802;16.114;2024-01-27T02:43:54;64418.19;;;5.89;100.00
48624;BME280;75490;45.802;16.114;2024-01-27T02:46:21;64413.94;;;5.90;100.00
48624;BME280;75490;45.802;16.114;2024-01-27T02:48:47;64401.56;;;5.76;100.00
48624;BME280;75490;45.802;16.114;2024-01-27T02:51:19;64376.91;;;5.53;100.00
48624;BME280;75490;45.802;16.114;2024-01-27T02:53:47;64361.34;;;5.35;100.00
48624;BME280;75490;45.802;16.114;2024-01-27T02:56:16;64330.25;;;5.01;100.00
48624;BME280;75490;45.802;16.114;2024-01-27T02:58:43;64304.56;;;4.82;100.00
48624;BME280;75490;45.802;16.114;2024-01-27T03:01:09;64283.72;;;4.64;100.00
48624;BME280;75490;45.802;16.114;2024-01-27T03:03:36;64272.97;;;4.49;100.00
48624;BME280;75490;45.802;16.114;2024-01-27T03:06:03;64259.59;;;4.39;100.00
48624;BME280;75490;45.802;16.114;2024-01-27T03:08:31;64244.56;;;4.20;100.00
48624;BME280;75490;45.802;16.114;2024-01-27T03:10:57;64215.19;;;3.97;100.00
48624;BME280;75490;45.802;16.114;2024-01-27T03:13:24;64199.13;;;3.82;100.00
48624;BME280;75490;45.802;16.114;2024-01-27T03:15:51;64191.06;;;3.69;100.00
48624;BME280;75490;45.802;16.114;2024-01-27T03:18:18;64176.13;;;3.60;100.00
48624;BME280;75490;45.802;16.114;2024-01-27T03:20:45;64168.03;;;3.45;100.00
48624;BME280;75490;45.802;16.114;2024-01-27T03:23:12;64154.75;;;3.40;100.00
48624;BME280;75490;45.802;16.114;2024-01-27T03:25:39;64146.13;;;3.27;100.00
48624;BME280;75490;45.802;16.114;2024-01-27T03:28:05;64135.44;;;3.16;100.00
48624;BME280;75490;45.802;16.114;2024-01-27T03:30:32;64127.97;;;3.12;100.00
48624;BME280;75490;45.802;16.114;2024-01-27T03:32:59;64130.13;;;3.16;100.00
48624;BME280;75490;45.802;16.114;2024-01-27T03:35:26;64128.50;;;3.12;100.00
48624;BME280;75490;45.802;16.114;2024-01-27T03:37:53;64109.81;;;2.97;100.00
48624;BME280;75490;45.802;16.114;2024-01-27T03:40:20;64091.63;;;2.80;100.00
48624;BME280;75490;45.802;16.114;2024-01-27T03:42:47;64075.59;;;2.65;100.00
48624;BME280;75490;45.802;16.114;2024-01-27T03:45:14;64072.91;;;2.60;100.00
48624;BME280;75490;45.802;16.114;2024-01-27T03:47:40;64058.47;;;2.43;100.00
48624;BME280;75490;45.802;16.114;2024-01-27T03:50:07;64043.00;;;2.31;100.00
48624;BME280;75490;45.802;16.114;2024-01-27T03:52:34;64031.75;;;2.18;100.00
48624;BME280;75490;45.802;16.114;2024-01-27T03:55:01;64015.25;;;2.10;100.00
48624;BME280;75490;45.802;16.114;2024-01-27T03:57:28;64000.75;;;1.89;100.00
48624;BME280;75490;45.802;16.114;2024-01-27T03:59:55;63994.34;;;1.83;100.00
48624;BME280;75490;45.802;16.114;2024-01-27T04:02:21;63986.88;;;1.75;100.00
48624;BME280;75490;45.802;16.114;2024-01-27T04:04:48;63978.34;;;1.70;100.00
48624;BME280;75490;45.802;16.114;2024-01-27T04:07:15;63975.69;;;1.67;100.00
48624;BME280;75490;45.802;16.114;2024-01-27T04:09:42;63980.53;;;1.74;100.00
48624;BME280;75490;45.802;16.114;2024-01-27T04:12:08;63975.13;;;1.64;100.00
48624;BME280;75490;45.802;16.114;2024-01-27T04:14:36;63966.06;;;1.58;100.00
48624;BME280;75490;45.802;16.114;2024-01-27T04:17:03;63959.09;;;1.49;100.00
48624;BME280;75490;45.802;16.114;2024-01-27T04:19:30;63947.34;;;1.38;100.00
48624;BME280;75490;45.802;16.114;2024-01-27T04:21:56;63951.16;;;1.47;100.00
48624;BME280;75490;45.802;16.114;2024-01-27T04:24:23;63936.75;;;1.33;100.00
48624;BME280;75490;45.802;16.114;2024-01-27T04:26:50;63935.06;;;1.26;100.00
48624;BME280;75490;45.802;16.114;2024-01-27T04:29:16;63904.16;;;0.99;100.00
48624;BME280;75490;45.802;16.114;2024-01-27T04:31:43;63896.69;;;0.92;100.00
48624;BME280;75490;45.802;16.114;2024-01-27T04:34:10;63898.81;;;0.94;100.00
48624;BME280;75490;45.802;16.114;2024-01-27T04:36:37;63892.91;;;0.86;100.00
48624;BME280;75490;45.802;16.114;2024-01-27T04:39:04;63896.06;;;0.84;100.00
48624;BME280;75490;45.802;16.114;2024-01-27T04:41:31;63894.00;;;0.90;100.00
48624;BME280;75490;45.802;16.114;2024-01-27T04:43:58;63883.34;;;0.82;100.00
48624;BME280;75490;45.802;16.114;2024-01-27T04:46:25;63907.28;;;0.97;100.00
48624;BME280;75490;45.802;16.114;2024-01-27T04:48:52;63897.19;;;0.90;100.00
48624;BME280;75490;45.802;16.114;2024-01-27T04:51:19;63881.22;;;0.78;100.00
48624;BME280;75490;45.802;16.114;2024-01-27T04:53:45;63875.84;;;0.70;100.00
48624;BME280;75490;45.802;16.114;2024-01-27T04:56:12;63872.66;;;0.67;100.00
48624;BME280;75490;45.802;16.114;2024-01-27T04:58:39;63871.09;;;0.68;100.00
48624;BME280;75490;45.802;16.114;2024-01-27T05:01:06;63876.91;;;0.71;100.00
48624;BME280;75490;45.802;16.114;2024-01-27T05:03:33;63866.84;;;0.66;100.00
48624;BME280;75490;45.802;16.114;2024-01-27T05:06:00;63873.66;;;0.63;100.00
48624;BME280;75490;45.802;16.114;2024-01-27T05:08:27;63868.88;;;0.61;100.00
48624;BME280;75490;45.802;16.114;2024-01-27T05:10:54;63873.66;;;0.63;100.00
48624;BME280;75490;45.802;16.114;2024-01-27T05:13:20;63869.44;;;0.64;100.00
48624;BME280;75490;45.802;16.114;2024-01-27T05:15:47;63872.66;;;0.67;100.00
48624;BME280;75490;45.802;16.114;2024-01-27T05:18:14;63867.75;;;0.55;100.00
48624;BME280;75490;45.802;16.114;2024-01-27T05:20:41;63852.38;;;0.48;100.00
48624;BME280;75490;45.802;16.114;2024-01-27T05:23:07;63842.78;;;0.39;100.00
48624;BME280;75490;45.802;16.114;2024-01-27T05:25:34;63845.44;;;0.41;100.00
48624;BME280;75490;45.802;16.114;2024-01-27T05:28:01;63857.72;;;0.53;100.00
48624;BME280;75490;45.802;16.114;2024-01-27T05:30:28;63859.81;;;0.55;100.00
48624;BME280;75490;45.802;16.114;2024-01-27T05:32:55;63859.31;;;0.57;100.00
48624;BME280;75490;45.802;16.114;2024-01-27T05:35:22;63859.81;;;0.55;100.00
48624;BME280;75490;45.802;16.114;2024-01-27T05:37:48;63850.31;;;0.51;100.00
48624;BME280;75490;45.802;16.114;2024-01-27T05:40:16;63858.78;;;0.54;100.00
48624;BME280;75490;45.802;16.114;2024-01-27T05:42:43;63867.31;;;0.62;100.00
48624;BME280;75490;45.802;16.114;2024-01-27T05:45:11;63868.38;;;0.63;100.00
48624;BME280;75490;45.802;16.114;2024-01-27T05:47:38;63872.66;;;0.69;100.00
48624;BME280;75490;45.802;16.114;2024-01-27T05:50:06;63875.78;;;0.65;100.00
48624;BME280;75490;45.802;16.114;2024-01-27T05:52:37;63872.66;;;0.67;100.00
48624;BME280;75490;45.802;16.114;2024-01-27T05:55:04;63857.75;;;0.58;100.00
48624;BME280;75490;45.802;16.114;2024-01-27T05:57:33;63865.16;;;0.60;100.00
48624;BME280;75490;45.802;16.114;2024-01-27T06:00:00;63860.91;;;0.56;100.00
48624;BME280;75490;45.802;16.114;2024-01-27T06:02:26;63856.63;;;0.49;100.00
48624;BME280;75490;45.802;16.114;2024-01-27T06:04:53;63843.31;;;0.42;100.00
48624;BME280;75490;45.802;16.114;2024-01-27T06:07:20;63843.84;;;0.40;100.00
48624;BME280;75490;45.802;16.114;2024-01-27T06:09:47;63832.72;;;0.37;100.00
48624;BME280;75490;45.802;16.114;2024-01-27T06:12:13;63835.81;;;0.29;100.00
48624;BME280;75490;45.802;16.114;2024-01-27T06:14:41;63815.59;;;0.13;100.00
48624;BME280;75490;45.802;16.114;2024-01-27T06:17:08;63814.97;;;0.07;100.00
48624;BME280;75490;45.802;16.114;2024-01-27T06:19:35;63793.16;;;-0.11;100.00
48624;BME280;75490;45.802;16.114;2024-01-27T06:22:02;63789.44;;;-0.12;100.00
48624;BME280;75490;45.802;16.114;2024-01-27T06:24:29;63788.38;;;-0.13;100.00
48624;BME280;75490;45.802;16.114;2024-01-27T06:26:56;63785.19;;;-0.16;100.00
48624;BME280;75490;45.802;16.114;2024-01-27T06:29:23;63775.59;;;-0.25;100.00
48624;BME280;75490;45.802;16.114;2024-01-27T06:31:49;63776.66;;;-0.24;100.00
48624;BME280;75490;45.802;16.114;2024-01-27T06:34:17;63766.56;;;-0.31;100.00
48624;BME280;75490;45.802;16.114;2024-01-27T06:36:44;63765.47;;;-0.35;100.00
48624;BME280;75490;45.802;16.114;2024-01-27T06:39:11;63762.25;;;-0.38;100.00
48624;BME280;75490;45.802;16.114;2024-01-27T06:41:38;63765.44;;;-0.38;100.00
48624;BME280;75490;45.802;16.114;2024-01-27T06:44:05;63743.06;;;-0.59;100.00
48624;BME280;75490;45.802;16.114;2024-01-27T06:46:31;63747.31;;;-0.55;100.00
48624;BME280;75490;45.802;16.114;2024-01-27T06:48:58;63756.41;;;-0.44;100.00
48624;BME280;75490;45.802;16.114;2024-01-27T06:51:25;63762.78;;;-0.38;100.00
48624;BME280;75490;45.802;16.114;2024-01-27T06:53:52;63773.44;;;-0.30;100.00
48624;BME280;75490;45.802;16.114;2024-01-27T06:56:18;63777.66;;;-0.28;100.00
48624;BME280;75490;45.802;16.114;2024-01-27T06:58:45;63771.88;;;-0.26;100.00
48624;BME280;75490;45.802;16.114;2024-01-27T07:01:12;63779.84;;;-0.21;100.00
48624;BME280;75490;45.802;16.114;2024-01-27T07:03:39;63787.88;;;-0.14;100.00
48624;BME280;75490;45.802;16.114;2024-01-27T07:06:06;63784.13;;;-0.17;100.00
48624;BME280;75490;45.802;16.114;2024-01-27T07:08:33;63797.38;;;-0.10;100.00
48624;BME280;75490;45.802;16.114;2024-01-27T07:10:59;63801.22;;;0.04;100.00
48624;BME280;75490;45.802;16.114;2024-01-27T07:13:26;63807.03;;;0.05;100.00
48624;BME280;75490;45.802;16.114;2024-01-27T07:15:56;63816.13;;;0.16;100.00
48624;BME280;75490;45.802;16.114;2024-01-27T07:18:24;63829.44;;;0.26;100.00
48624;BME280;75490;45.802;16.114;2024-01-27T07:20:51;63840.63;;;0.37;100.00
48624;BME280;75490;45.802;16.114;2024-01-27T07:23:18;63852.38;;;0.48;100.00
48624;BME280;75490;45.802;16.114;2024-01-27T07:25:44;63870.00;;;0.67;100.00
48624;BME280;75490;45.802;16.114;2024-01-27T07:28:11;63897.75;;;0.93;100.00
48624;BME280;75490;45.802;16.114;2024-01-27T07:30:38;63921.16;;;1.11;100.00
48624;BME280;75490;45.802;16.114;2024-01-27T07:33:05;63928.16;;;1.20;100.00
48624;BME280;75490;45.802;16.114;2024-01-27T07:35:32;63951.13;;;1.44;100.00
48624;BME280;75490;45.802;16.114;2024-01-27T07:37:59;63967.66;;;1.57;100.00
48624;BME280;75490;45.802;16.114;2024-01-27T07:40:25;63992.19;;;1.81;100.00
48624;BME280;75490;45.802;16.114;2024-01-27T07:42:52;64010.44;;;2.03;100.00
48624;BME280;75490;45.802;16.114;2024-01-27T07:45:19;64029.09;;;2.21;100.00
48624;BME280;75490;45.802;16.114;2024-01-27T07:47:46;64056.88;;;2.44;100.00
48624;BME280;75490;45.802;16.114;2024-01-27T07:50:12;64078.25;;;2.65;100.00
48624;BME280;75490;45.802;16.114;2024-01-27T07:52:39;64085.78;;;2.77;100.00
48624;BME280;75490;45.802;16.114;2024-01-27T07:55:07;64113.56;;;3.03;100.00
48624;BME280;75490;45.802;16.114;2024-01-27T07:57:33;64139.25;;;3.28;100.00
48624;BME280;75490;45.802;16.114;2024-01-27T08:00:01;64170.28;;;3.60;100.00
48624;BME280;75490;45.802;16.114;2024-01-27T08:02:28;64195.88;;;3.74;100.00
48624;BME280;75490;45.802;16.114;2024-01-27T08:04:55;64217.84;;;4.00;100.00
48624;BME280;75490;45.802;16.114;2024-01-27T08:07:23;64245.72;;;4.28;100.00
48624;BME280;75490;45.802;16.114;2024-01-27T08:09:49;64271.38;;;4.48;100.00
48624;BME280;75490;45.802;16.114;2024-01-27T08:12:16;64290.66;;;4.69;100.00
48624;BME280;75490;45.802;16.114;2024-01-27T08:14:43;64325.44;;;4.99;100.00
48624;BME280;75490;45.802;16.114;2024-01-27T08:17:10;64337.28;;;5.15;100.00
48624;BME280;75490;45.802;16.114;2024-01-27T08:19:37;64362.94;;;5.34;100.00
48624;BME280;75490;45.802;16.114;2024-01-27T08:22:04;64383.88;;;5.57;100.00
48624;BME280;75490;45.802;16.114;2024-01-27T08:24:30;64429.47;;;6.02;100.00
48624;BME280;75490;45.802;16.114;2024-01-27T08:26:58;64445.00;;;6.15;100.00
48624;BME280;75490;45.802;16.114;2024-01-27T08:29:25;64441.28;;;6.14;100.00
48624;BME280;75490;45.802;16.114;2024-01-27T08:31:52;64455.22;;;6.27;100.00
48624;BME280;75490;45.802;16.114;2024-01-27T08:34:18;64461.13;;;6.35;100.00
48624;BME280;75490;45.802;16.114;2024-01-27T08:36:45;64480.44;;;6.53;100.00
48624;BME280;75490;45.802;16.114;2024-01-27T08:39:12;64501.31;;;6.65;100.00
48624;BME280;75490;45.802;16.114;2024-01-27T08:41:39;64515.81;;;6.82;100.00
48624;BME280;75490;45.802;16.114;2024-01-27T08:44:06;64532.97;;;7.00;100.00
48624;BME280;75490;45.802;16.114;2024-01-27T08:46:33;64550.13;;;7.11;100.00
48624;BME280;75490;45.802;16.114;2024-01-27T08:49:00;64555.00;;;7.21;100.00
48624;BME280;75490;45.802;16.114;2024-01-27T08:51:27;64646.78;;;8.05;100.00
48624;BME280;75490;45.802;16.114;2024-01-27T08:53:53;64679.03;;;8.36;100.00
48624;BME280;75490;45.802;16.114;2024-01-27T08:56:20;64638.75;;;8.03;100.00
48624;BME280;75490;45.802;16.114;2024-01-27T08:58:47;64645.72;;;8.04;100.00
48624;BME280;75490;45.802;16.114;2024-01-27T09:01:16;64661.28;;;8.21;100.00
48624;BME280;75490;45.802;16.114;2024-01-27T09:03:43;64711.28;;;8.66;100.00
48624;BME280;75490;45.802;16.114;2024-01-27T09:06:10;64663.97;;;8.21;100.00
48624;BME280;75490;45.802;16.114;2024-01-27T09:08:37;64697.84;;;8.53;100.00
48624;BME280;75490;45.802;16.114;2024-01-27T09:11:04;64702.16;;;8.60;100.00
48624;BME280;75490;45.802;16.114;2024-01-27T09:13:31;64820.41;;;9.72;100.00
48624;BME280;75490;45.802;16.114;2024-01-27T09:15:57;64773.13;;;9.32;100.00
48624;BME280;75490;45.802;16.114;2024-01-27T09:18:26;64755.91;;;9.16;100.00
48624;BME280;75490;45.802;16.114;2024-01-27T09:20:53;64867.75;;;10.16;100.00
48624;BME280;75490;45.802;16.114;2024-01-27T09:23:21;64779.56;;;9.38;92.34
48624;BME280;75490;45.802;16.114;2024-01-27T09:25:47;64737.09;;;8.96;92.68
48624;BME280;75490;45.802;16.114;2024-01-27T09:28:14;64752.16;;;9.10;97.45
48624;BME280;75490;45.802;16.114;2024-01-27T09:30:42;64779.00;;;9.33;89.21
48624;BME280;75490;45.802;16.114;2024-01-27T09:33:09;64826.34;;;9.80;92.23
48624;BME280;75490;45.802;16.114;2024-01-27T09:35:36;64829.03;;;9.77;89.70
48624;BME280;75490;45.802;16.114;2024-01-27T09:38:03;64810.19;;;9.59;87.31
48624;BME280;75490;45.802;16.114;2024-01-27T09:40:30;64837.06;;;9.85;87.73
48624;BME280;75490;45.802;16.114;2024-01-27T09:42:59;64793.53;;;9.46;84.71
48624;BME280;75490;45.802;16.114;2024-01-27T09:45:26;64800.50;;;9.48;90.69
48624;BME280;75490;45.802;16.114;2024-01-27T09:47:55;64781.16;;;9.32;91.94
48624;BME280;75490;45.802;16.114;2024-01-27T09:50:23;64773.09;;;9.27;91.60
48624;BME280;75490;45.802;16.114;2024-01-27T09:52:50;64788.16;;;9.41;92.06
48624;BME280;75490;45.802;16.114;2024-01-27T09:55:19;64758.56;;;9.11;89.47
48624;BME280;75490;45.802;16.114;2024-01-27T09:57:46;64798.94;;;9.54;91.67
48624;BME280;75490;45.802;16.114;2024-01-27T10:00:14;64839.25;;;9.92;96.81
48624;BME280;75490;45.802;16.114;2024-01-27T10:02:45;64798.91;;;9.51;93.63
48624;BME280;75490;45.802;16.114;2024-01-27T10:05:13;64790.28;;;9.43;88.80
48624;BME280;75490;45.802;16.114;2024-01-27T10:07:40;64801.59;;;9.51;84.07
48624;BME280;75490;45.802;16.114;2024-01-27T10:10:07;64815.56;;;9.65;87.30
48624;BME280;75490;45.802;16.114;2024-01-27T10:12:39;64811.28;;;9.66;84.21
48624;BME280;75490;45.802;16.114;2024-01-27T10:15:07;64822.00;;;9.71;85.09
48624;BME280;75490;45.802;16.114;2024-01-27T10:17:44;64799.47;;;9.54;82.48
48624;BME280;75490;45.802;16.114;2024-01-27T10:20:11;64803.75;;;9.58;76.73
48624;BME280;75490;45.802;16.114;2024-01-27T10:22:42;64811.25;;;9.60;80.83
48624;BME280;75490;45.802;16.114;2024-01-27T10:25:12;64806.44;;;9.61;76.94
48624;BME280;75490;45.802;16.114;2024-01-27T10:27:39;64817.75;;;9.69;72.30
48624;BME280;75490;45.802;16.114;2024-01-27T10:30:06;64800.50;;;9.50;71.16
48624;BME280;75490;45.802;16.114;2024-01-27T10:32:41;64827.97;;;9.79;72.03
48624;BME280;75490;45.802;16.114;2024-01-27T10:35:08;64825.81;;;9.77;72.78
48624;BME280;75490;45.802;16.114;2024-01-27T10:37:35;64832.81;;;9.86;70.73
48624;BME280;75490;45.802;16.114;2024-01-27T10:40:03;64795.69;;;9.51;71.38
48624;BME280;75490;45.802;16.114;2024-01-27T10:42:30;64816.66;;;9.68;72.07
48624;BME280;75490;45.802;16.114;2024-01-27T10:44:58;64836.56;;;9.89;71.24
48624;BME280;75490;45.802;16.114;2024-01-27T10:47:30;64845.72;;;9.98;66.44
48624;BME280;75490;45.802;16.114;2024-01-27T10:49:58;64848.38;;;9.93;64.45
48624;BME280;75490;45.802;16.114;2024-01-27T10:52:31;64842.50;;;9.95;64.94
48624;BME280;75490;45.802;16.114;2024-01-27T10:55:00;64860.75;;;10.07;65.80
48624;BME280;75490;45.802;16.114;2024-01-27T10:57:30;64853.78;;;10.06;64.05
48624;BME280;75490;45.802;16.114;2024-01-27T10:59:57;64861.31;;;10.08;63.75
48624;BME280;75490;45.802;16.114;2024-01-27T11:02:24;64845.16;;;9.92;64.90
48624;BME280;75490;45.802;16.114;2024-01-27T11:04:51;64862.91;;;10.12;65.79
48624;BME280;75490;45.802;16.114;2024-01-27T11:07:25;64860.78;;;10.12;65.52
48624;BME280;75490;45.802;16.114;2024-01-27T11:09:52;64868.28;;;10.14;63.21
48624;BME280;75490;45.802;16.114;2024-01-27T11:12:22;64874.25;;;10.22;63.20
48624;BME280;75490;45.802;16.114;2024-01-27T11:14:50;64854.31;;;10.06;63.56
48624;BME280;75490;45.802;16.114;2024-01-27T11:17:18;64866.69;;;10.15;63.46
48624;BME280;75490;45.802;16.114;2024-01-27T11:19:46;64863.44;;;10.12;64.06
48624;BME280;75490;45.802;16.114;2024-01-27T11:22:27;64856.47;;;10.08;64.56
48624;BME280;75490;45.802;16.114;2024-01-27T11:27:40;64861.84;;;10.08;62.68
48624;BME280;75490;45.802;16.114;2024-01-27T11:32:52;64873.72;;;10.24;62.39
48624;BME280;75490;45.802;16.114;2024-01-27T11:35:19;64841.41;;;9.94;61.82
48624;BME280;75490;45.802;16.114;2024-01-27T11:37:46;64859.16;;;10.06;61.29
48624;BME280;75490;45.802;16.114;2024-01-27T11:40:14;64880.16;;;10.25;63.55
48624;BME280;75490;45.802;16.114;2024-01-27T11:42:42;64868.81;;;10.15;61.01
48624;BME280;75490;45.802;16.114;2024-01-27T11:45:09;64887.69;;;10.35;62.55
48624;BME280;75490;45.802;16.114;2024-01-27T11:47:36;64888.78;;;10.39;60.50
48624;BME280;75490;45.802;16.114;2024-01-27T11:50:03;64880.72;;;10.31;60.53
48624;BME280;75490;45.802;16.114;2024-01-27T11:52:30;64894.16;;;10.41;60.35
48624;BME280;75490;45.802;16.114;2024-01-27T11:54:58;64894.16;;;10.41;59.96
48624;BME280;75490;45.802;16.114;2024-01-27T11:57:26;64912.97;;;10.54;61.33
48624;BME280;75490;45.802;16.114;2024-01-27T11:59:54;64875.31;;;10.26;59.11
48624;BME280;75490;45.802;16.114;2024-01-27T12:02:21;64907.63;;;10.56;59.38
48624;BME280;75490;45.802;16.114;2024-01-27T12:04:48;64913.00;;;10.61;57.39
48624;BME280;75490;45.802;16.114;2024-01-27T12:07:16;64880.16;;;10.25;56.96
48624;BME280;75490;45.802;16.114;2024-01-27T12:09:45;64888.25;;;10.38;59.05
48624;BME280;75490;45.802;16.114;2024-01-27T12:12:13;64908.66;;;10.52;56.44
48624;BME280;75490;45.802;16.114;2024-01-27T12:14:47;64890.94;;;10.41;55.61
48624;BME280;75490;45.802;16.114;2024-01-27T12:17:15;64929.16;;;10.74;60.42
48624;BME280;75490;45.802;16.114;2024-01-27T12:19:49;64920.53;;;10.66;57.60
48624;BME280;75490;45.802;16.114;2024-01-27T12:22:24;64917.84;;;10.63;56.61
48624;BME280;75490;45.802;16.114;2024-01-27T12:24:55;64921.06;;;10.69;59.15
48624;BME280;75490;45.802;16.114;2024-01-27T12:27:22;64940.47;;;10.87;60.43
48624;BME280;75490;45.802;16.114;2024-01-27T12:29:49;64924.31;;;10.72;55.48
48624;BME280;75490;45.802;16.114;2024-01-27T12:32:17;64914.63;;;10.63;56.33
48624;BME280;75490;45.802;16.114;2024-01-27T12:34:44;64923.75;;;10.69;54.82
48624;BME280;75490;45.802;16.114;2024-01-27T12:37:16;64935.59;;;10.78;55.90
48624;BME280;75490;45.802;16.114;2024-01-27T12:39:43;64935.06;;;10.77;56.42
48624;BME280;75490;45.802;16.114;2024-01-27T12:42:11;64942.59;;;10.84;59.21
48624;BME280;75490;45.802;16.114;2024-01-27T12:44:39;64895.22;;;10.42;55.73
48624;BME280;75490;45.802;16.114;2024-01-27T12:47:06;64919.44;;;10.62;58.41
48624;BME280;75490;45.802;16.114;2024-01-27T12:49:32;64941.00;;;10.85;57.12
48624;BME280;75490;45.802;16.114;2024-01-27T12:51:59;64926.44;;;10.69;55.38
48624;BME280;75490;45.802;16.114;2024-01-27T12:54:26;64909.75;;;10.56;55.58
48624;BME280;75490;45.802;16.114;2024-01-27T12:56:53;64904.91;;;10.49;55.91